Time;durP1;ratioP1;P1;durP2;ratioP2;P2;SDS_P1;SDS_P2;PMS_P1;PMS_P2;Temp;Humidity;BMP_temperature;BMP_pressure;BME280_temperature;BME280_humidity;BME280_pressure;Samples;Min_cycle;Max_cycle;Signal;HPM_P1;HPM_P2
2021/01/26 00:01:26;;;;;;;10.43;5.30;;;;;;;2.64;81.14;99264.09;121222;1146;104350;-77
2021/01/26 00:03:55;;;;;;;14.20;5.87;;;;;;;2.62;80.85;99270.03;121205;1146;104811;-76
2021/01/26 00:06:24;;;;;;;12.50;5.73;;;;;;;2.56;80.83;99275.80;121121;1146;104357;-76
2021/01/26 00:08:53;;;;;;;12.17;5.90;;;;;;;2.54;80.71;99284.30;121070;1147;104447;-76
2021/01/26 00:11:22;;;;;;;9.83;5.63;;;;;;;2.52;80.95;99291.98;121134;1146;104369;-76
2021/01/26 00:13:51;;;;;;;12.03;5.73;;;;;;;2.54;81.16;99294.66;121145;1147;104364;-76
2021/01/26 00:16:20;;;;;;;12.50;5.63;;;;;;;2.55;80.57;99302.50;121214;1148;104393;-76
2021/01/26 00:18:49;;;;;;;9.33;4.90;;;;;;;2.57;81.06;99310.34;121183;1147;104357;-77
2021/01/26 00:21:18;;;;;;;9.73;4.80;;;;;;;2.54;80.91;99308.52;121101;1147;104465;-78
2021/01/26 00:23:47;;;;;;;10.33;4.90;;;;;;;2.51;80.58;99306.66;121131;1148;104364;-74
2021/01/26 00:26:18;;;;;;;9.00;4.40;;;;;;;2.49;81.28;99315.14;121119;1146;104357;-74
2021/01/26 00:28:47;;;;;;;8.10;4.10;;;;;;;2.44;80.68;99314.92;121134;1147;104382;-74
2021/01/26 00:31:16;;;;;;;7.00;3.60;;;;;;;2.40;81.07;99313.02;121095;1147;104518;-74
2021/01/26 00:33:45;;;;;;;8.40;3.95;;;;;;;2.39;80.89;99305.17;121076;1147;104485;-74
2021/01/26 00:36:14;;;;;;;5.53;3.23;;;;;;;2.38;80.37;99306.85;121115;1146;104847;-74
2021/01/26 00:38:43;;;;;;;5.50;3.20;;;;;;;2.40;80.85;99307.84;121146;1146;104373;-74
2021/01/26 00:41:13;;;;;;;4.70;3.20;;;;;;;2.41;80.28;99304.41;121121;1147;104351;-74
2021/01/26 00:43:42;;;;;;;6.60;3.10;;;;;;;2.40;80.55;99307.84;121117;1148;104384;-74
2021/01/26 00:46:11;;;;;;;6.87;3.60;;;;;;;2.42;81.11;99313.09;121093;1146;104416;-75
2021/01/26 00:48:40;;;;;;;7.27;3.43;;;;;;;2.41;80.66;99324.25;121113;1147;104351;-75
2021/01/26 00:51:09;;;;;;;4.97;3.00;;;;;;;2.38;80.54;99335.33;121111;1147;104346;-75
2021/01/26 00:53:39;;;;;;;7.60;3.20;;;;;;;2.37;80.99;99340.43;121148;1148;104582;-76
2021/01/26 00:56:11;;;;;;;5.27;3.53;;;;;;;2.34;80.56;99344.66;121105;1148;104383;-75
2021/01/26 00:58:41;;;;;;;5.90;3.33;;;;;;;2.35;80.95;99342.95;121081;1148;104447;-76
2021/01/26 01:01:13;;;;;;;5.43;3.20;;;;;;;2.38;80.29;99339.63;121126;1147;104355;-76
2021/01/26 01:03:47;;;;;;;5.97;3.30;;;;;;;2.41;81.04;99351.02;121113;1148;104490;-76
2021/01/26 01:06:17;;;;;;;5.67;3.47;;;;;;;2.42;80.98;99352.80;121148;1147;104353;-75
2021/01/26 01:08:46;;;;;;;5.33;3.53;;;;;;;2.42;80.51;99357.11;121125;1147;104540;-75
2021/01/26 01:11:15;;;;;;;7.10;3.40;;;;;;;2.41;80.52;99369.14;121081;1147;104398;-75
2021/01/26 01:13:44;;;;;;;7.10;3.70;;;;;;;2.41;80.22;99373.44;121137;1148;104357;-76
2021/01/26 01:16:14;;;;;;;5.63;3.30;;;;;;;2.36;80.14;99382.69;121128;1147;104485;-76
2021/01/26 01:18:43;;;;;;;6.57;3.73;;;;;;;2.33;80.44;99386.00;121139;1147;104348;-76
2021/01/26 01:21:12;;;;;;;5.90;3.60;;;;;;;2.33;80.62;99388.59;121116;1147;104364;-75
2021/01/26 01:23:41;;;;;;;5.17;3.17;;;;;;;2.34;79.73;99391.26;121129;1146;104362;-76
2021/01/26 01:26:10;;;;;;;5.85;3.20;;;;;;;2.34;80.26;99385.20;121154;1146;104860;-75
2021/01/26 01:28:39;;;;;;;5.33;3.43;;;;;;;2.34;80.14;99380.90;121097;1146;104358;-76
2021/01/26 01:31:08;;;;;;;6.43;3.37;;;;;;;2.35;79.81;99384.37;121114;1147;104358;-75
2021/01/26 01:33:37;;;;;;;6.17;3.60;;;;;;;2.32;80.21;99384.22;121136;1148;104479;-76
2021/01/26 01:36:07;;;;;;;6.03;3.53;;;;;;;2.31;79.86;99398.87;121120;1147;104659;-77
2021/01/26 01:38:36;;;;;;;6.13;3.50;;;;;;;2.30;79.85;99398.79;121125;1147;104354;-74
2021/01/26 01:41:05;;;;;;;5.83;3.70;;;;;;;2.31;79.96;99400.58;121132;1147;104387;-75
2021/01/26 01:43:34;;;;;;;9.40;3.50;;;;;;;2.31;79.43;99398.87;121132;1147;104464;-75
2021/01/26 01:46:07;;;;;;;5.43;3.40;;;;;;;2.33;80.33;99397.23;121120;1147;104439;-74
2021/01/26 01:48:37;;;;;;;6.33;3.50;;;;;;;2.34;79.29;99404.20;121113;1146;104510;-75
2021/01/26 01:51:10;;;;;;;6.73;4.10;;;;;;;2.37;79.98;99416.42;121131;1147;104482;-74
2021/01/26 01:53:41;;;;;;;5.80;3.93;;;;;;;2.38;79.92;99406.95;121128;1147;104352;-75
2021/01/26 01:56:16;;;;;;;5.87;3.70;;;;;;;2.38;79.75;99417.30;121204;1148;104863;-76
2021/01/26 01:58:52;;;;;;;8.35;3.80;;;;;;;2.34;79.31;99411.97;121180;1147;104374;-76
2021/01/26 02:01:25;;;;;;;5.70;3.93;;;;;;;2.32;79.60;99403.25;121109;1146;104477;-76
2021/01/26 02:03:59;;;;;;;7.43;3.90;;;;;;;2.31;79.67;99401.45;121115;1147;104364;-77
2021/01/26 02:06:32;;;;;;;6.60;3.43;;;;;;;2.33;79.06;99405.00;121117;1148;104358;-76
2021/01/26 02:09:06;;;;;;;6.77;3.90;;;;;;;2.35;79.48;99407.67;121154;1146;104379;-76
2021/01/26 02:11:36;;;;;;;6.33;3.92;;;;;;;2.34;79.96;99411.09;121122;1147;104495;-77
2021/01/26 02:14:05;;;;;;;8.10;4.10;;;;;;;2.34;79.63;99416.27;121083;1148;104417;-76
2021/01/26 02:16:49;;;;;;;6.73;4.07;;;;;;;2.34;79.69;99408.50;121147;1146;104423;-76
2021/01/26 02:19:47;;;;;;;5.40;3.50;;;;;;;2.33;79.21;99419.66;121146;1147;104461;-76
2021/01/26 02:22:49;;;;;;;7.67;4.50;;;;;;;2.31;79.22;99416.11;121105;1147;104467;-76
2021/01/26 02:28:51;;;;;;;6.57;3.70;;;;;;;2.35;79.04;99412.84;121372;1147;104560;-76
2021/01/26 02:31:48;;;;;;;8.03;4.03;;;;;;;2.36;79.79;99401.69;121220;1147;104345;-77
2021/01/26 02:34:44;;;;;;;6.70;3.77;;;;;;;2.36;79.44;99401.69;120937;1148;104408;-76
2021/01/26 02:37:52;;;;;;;6.70;4.07;;;;;;;2.36;78.92;99409.45;121106;1147;104358;-76
2021/01/26 02:40:26;;;;;;;7.30;4.10;;;;;;;2.36;79.66;99408.58;121170;1148;104345;-78
2021/01/26 02:43:12;;;;;;;9.47;4.60;;;;;;;2.35;79.24;99410.26;121225;1146;104410;-77
2021/01/26 02:45:48;;;;;;;5.93;4.00;;;;;;;2.35;79.45;99407.67;121159;1147;104345;-75
2021/01/26 02:48:37;;;;;;;8.70;4.20;;;;;;;2.37;79.25;99411.25;121166;1147;104511;-76
2021/01/26 02:51:12;;;;;;;7.13;4.30;;;;;;;2.38;78.99;99402.65;121232;1148;104352;-76
2021/01/26 02:53:54;;;;;;;7.60;4.10;;;;;;;2.40;79.69;99406.23;121133;1146;104476;-76
2021/01/26 02:56:34;;;;;;;6.10;4.00;;;;;;;2.39;78.95;99408.73;121137;1144;104448;-76
2021/01/26 02:59:15;;;;;;;7.70;4.20;;;;;;;2.37;79.36;99416.42;121150;1144;104439;-77
2021/01/26 03:01:50;;;;;;;8.67;4.50;;;;;;;2.37;79.56;99418.11;121146;1144;104489;-76
2021/01/26 03:04:23;;;;;;;7.23;4.30;;;;;;;2.36;79.17;99412.05;121079;1144;104341;-76
2021/01/26 03:06:57;;;;;;;6.12;3.87;;;;;;;2.36;79.88;99393.05;121089;1147;104340;-76
2021/01/26 03:09:31;;;;;;;6.83;4.03;;;;;;;2.38;79.14;99388.83;121156;1144;104370;-76
2021/01/26 03:12:06;;;;;;;7.43;4.27;;;;;;;2.42;78.93;99386.47;121204;1144;104412;-76
2021/01/26 03:14:40;;;;;;;9.00;4.47;;;;;;;2.45;79.26;99396.98;121136;1145;104492;-76
2021/01/26 03:17:19;;;;;;;7.22;4.00;;;;;;;2.49;79.20;99400.59;121124;1144;104500;-76
2021/01/26 03:19:51;;;;;;;7.37;4.20;;;;;;;2.47;78.93;99402.23;121128;1144;104345;-76
2021/01/26 03:22:23;;;;;;;6.60;4.20;;;;;;;2.47;78.51;99405.70;121130;1146;104345;-76
2021/01/26 03:24:55;;;;;;;7.47;4.23;;;;;;;2.47;79.25;99397.94;121199;1144;104972;-76
2021/01/26 03:27:40;;;;;;;7.00;4.27;;;;;;;2.49;78.87;99385.06;121143;1148;104373;-76
2021/01/26 03:30:14;;;;;;;8.67;4.37;;;;;;;2.49;79.15;99379.88;121127;1144;104369;-76
2021/01/26 03:32:49;;;;;;;6.53;3.77;;;;;;;2.50;79.19;99382.55;121137;1144;104381;-76
2021/01/26 03:35:19;;;;;;;6.43;4.03;;;;;;;2.50;79.20;99387.73;121147;1145;104445;-75
2021/01/26 03:37:54;;;;;;;8.40;4.20;;;;;;;2.51;78.83;99405.05;121160;1144;104463;-76
2021/01/26 03:40:23;;;;;;;8.30;4.63;;;;;;;2.53;79.04;99401.66;121248;1144;104423;-77
2021/01/26 03:42:52;;;;;;;9.23;4.50;;;;;;;2.56;79.39;99407.00;121168;1147;104471;-76
2021/01/26 03:45:21;;;;;;;9.50;4.57;;;;;;;2.58;79.08;99407.95;121197;1144;104467;-77
2021/01/26 03:48:06;;;;;;;7.30;4.20;;;;;;;2.60;79.05;99394.28;121148;1147;104467;-77
2021/01/26 03:50:51;;;;;;;8.93;4.63;;;;;;;2.62;79.35;99381.41;121127;1147;104342;-77
2021/01/26 03:53:51;;;;;;;7.40;4.40;;;;;;;2.64;78.68;99401.36;121143;1144;104343;-77
2021/01/26 03:56:30;;;;;;;9.03;4.70;;;;;;;2.66;78.50;99420.45;121160;1144;104380;-77
2021/01/26 03:59:15;;;;;;;7.97;4.30;;;;;;;2.67;78.40;99424.83;121119;1146;104455;-77
2021/01/26 04:01:53;;;;;;;8.97;4.40;;;;;;;2.67;78.74;99427.42;121003;1144;104374;-78
2021/01/26 04:04:33;;;;;;;6.00;3.90;;;;;;;2.67;78.37;99442.08;121143;1144;104345;-77
2021/01/26 04:07:05;;;;;;;8.67;4.57;;;;;;;2.67;78.77;99442.08;121068;1144;104345;-77
2021/01/26 04:09:38;;;;;;;8.60;4.53;;;;;;;2.67;78.85;99442.08;121132;1144;104334;-77
2021/01/26 04:12:13;;;;;;;9.47;4.60;;;;;;;2.65;78.65;99454.05;121151;1144;104465;-77
2021/01/26 04:14:51;;;;;;;7.90;4.50;;;;;;;2.66;78.93;99451.53;121137;1144;104367;-78
2021/01/26 04:17:27;;;;;;;6.67;3.83;;;;;;;2.69;78.48;99453.40;121151;1144;104342;-77
2021/01/26 04:20:01;;;;;;;9.50;4.50;;;;;;;2.74;78.76;99464.00;121156;1144;104944;-77
2021/01/26 04:22:31;;;;;;;8.30;4.17;;;;;;;2.76;78.32;99467.55;121110;1144;104353;-77
2021/01/26 04:25:00;;;;;;;7.10;4.20;;;;;;;2.75;78.27;99471.84;121134;1144;104348;-77
2021/01/26 04:27:29;;;;;;;8.17;4.40;;;;;;;2.76;78.14;99471.05;121127;1144;104470;-78
2021/01/26 04:29:57;;;;;;;8.17;4.70;;;;;;;2.79;79.08;99478.06;121125;1144;104342;-77
2021/01/26 04:32:26;;;;;;;10.70;5.07;;;;;;;2.81;78.92;99481.64;121154;1144;104354;-77
2021/01/26 04:34:55;;;;;;;9.13;4.93;;;;;;;2.81;78.07;99485.11;121114;1144;104346;-77
2021/01/26 04:37:24;;;;;;;7.73;4.50;;;;;;;2.83;78.68;99492.95;121130;1144;104343;-77
2021/01/26 04:39:53;;;;;;;7.87;4.50;;;;;;;2.83;78.72;99491.25;121141;1144;104352;-77
2021/01/26 04:42:26;;;;;;;7.30;4.50;;;;;;;2.84;77.91;99497.34;121145;1142;104348;-77
2021/01/26 04:45:08;;;;;;;11.97;5.50;;;;;;;2.83;78.43;99506.79;121130;1144;104384;-78
2021/01/26 04:47:45;;;;;;;9.23;5.00;;;;;;;2.85;78.54;99515.55;120911;1144;104345;-78
2021/01/26 04:50:26;;;;;;;9.90;5.27;;;;;;;2.85;78.21;99515.55;120975;1144;104361;-78
2021/01/26 04:53:14;;;;;;;10.27;5.47;;;;;;;2.84;78.41;99512.89;121126;1144;104345;-78
2021/01/26 04:56:03;;;;;;;10.90;5.00;;;;;;;2.84;78.38;99518.95;121095;1144;104461;-77
2021/01/26 04:58:49;;;;;;;8.27;4.70;;;;;;;2.83;78.19;99511.97;121146;1144;104592;-77
2021/01/26 05:01:36;;;;;;;8.93;4.83;;;;;;;2.85;78.47;99510.38;121104;1147;104410;-77
2021/01/26 05:04:11;;;;;;;8.13;4.73;;;;;;;2.90;78.52;99504.51;121085;1144;104348;-78
2021/01/26 05:06:43;;;;;;;7.97;4.60;;;;;;;2.91;77.85;99507.17;121079;1144;104351;-78
2021/01/26 05:09:17;;;;;;;9.83;5.47;;;;;;;2.95;78.75;99509.12;121139;1144;104340;-80
2021/01/26 05:11:58;;;;;;;10.87;5.57;;;;;;;2.96;78.00;99512.59;121119;1144;104524;-79
2021/01/26 05:14:32;;;;;;;11.03;5.23;;;;;;;2.95;78.05;99513.42;121072;1144;104367;-80
2021/01/26 05:17:08;;;;;;;11.80;5.60;;;;;;;2.94;78.10;99519.41;121102;1144;104476;-80
2021/01/26 05:19:43;;;;;;;12.80;5.57;;;;;;;2.93;78.33;99518.53;121129;1144;104338;-78
2021/01/26 05:22:23;;;;;;;11.20;5.60;;;;;;;2.96;77.92;99520.37;121174;1144;104530;-79
2021/01/26 05:25:00;;;;;;;12.83;5.50;;;;;;;2.97;77.78;99528.22;121164;1144;104352;-78
2021/01/26 05:27:29;;;;;;;13.23;7.03;;;;;;;3.00;78.36;99524.91;120961;1144;104557;-80
2021/01/26 05:29:59;;;;;;;13.93;6.57;;;;;;;3.01;78.14;99531.88;121042;1144;104388;-80
2021/01/26 05:32:30;;;;;;;17.97;8.60;;;;;;;3.03;78.40;99540.61;121049;1144;104371;-79
2021/01/26 05:34:59;;;;;;;15.90;7.83;;;;;;;3.04;78.37;99547.58;120930;1144;104572;-79
2021/01/26 05:37:30;;;;;;;17.87;8.07;;;;;;;3.01;78.25;99548.31;121048;1144;104345;-79
2021/01/26 05:40:05;;;;;;;19.10;9.10;;;;;;;2.98;78.18;99548.15;121030;1144;104393;-82
2021/01/26 05:42:35;;;;;;;16.70;8.20;;;;;;;2.94;77.42;99551.39;120932;1144;104380;-82
2021/01/26 05:45:11;;;;;;;18.97;9.23;;;;;;;2.93;77.67;99553.90;121053;1144;104443;-81
2021/01/26 05:47:41;;;;;;;21.43;8.97;;;;;;;2.93;78.36;99554.81;120993;1144;104332;-79
2021/01/26 05:50:24;;;;;;;20.63;9.90;;;;;;;2.97;77.81;99555.84;120925;1144;104493;-80
2021/01/26 05:53:03;;;;;;;20.17;9.33;;;;;;;3.02;78.48;99569.92;120881;1144;104364;-80
2021/01/26 05:55:35;;;;;;;20.53;10.37;;;;;;;3.06;78.49;99577.05;121996;1142;104345;-82
2021/01/26 05:58:15;;;;;;;20.67;9.43;;;;;;;3.13;78.77;99583.42;120772;1144;104362;-80
2021/01/26 06:00:44;;;;;;;20.50;10.17;;;;;;;3.17;78.47;99595.74;120916;1144;104346;-79
2021/01/26 06:03:19;;;;;;;22.80;10.20;;;;;;;3.18;78.38;99593.23;120987;1148;104361;-81
2021/01/26 06:06:03;;;;;;;20.93;10.00;;;;;;;3.20;78.69;99604.55;121004;1144;104476;-81
2021/01/26 06:08:35;;;;;;;20.67;9.67;;;;;;;3.19;77.89;99607.95;120998;1144;104359;-79
2021/01/26 06:11:16;;;;;;;23.23;9.77;;;;;;;3.18;78.25;99613.97;120944;1144;104348;-80
2021/01/26 06:13:45;;;;;;;19.17;9.43;;;;;;;3.19;77.87;99610.55;122924;1144;102013;-81
2021/01/26 06:16:19;;;;;;;19.90;8.63;;;;;;;3.21;77.60;99614.13;122239;1144;102826;-81
2021/01/26 06:18:58;;;;;;;17.33;7.23;;;;;;;3.23;76.99;99616.80;122858;1143;102019;-80
2021/01/26 06:21:29;;;;;;;13.80;6.60;;;;;;;3.22;77.52;99623.66;121562;1144;104423;-82
2021/01/26 06:24:00;;;;;;;15.63;6.90;;;;;;;3.25;77.04;99625.53;120648;1144;104538;-82
2021/01/26 06:26:36;;;;;;;14.30;6.70;;;;;;;3.28;77.51;99627.40;121150;1142;104370;-82
2021/01/26 06:29:28;;;;;;;17.37;7.43;;;;;;;3.37;77.30;99625.27;120675;1144;104589;-82
2021/01/26 06:32:05;;;;;;;17.83;7.43;;;;;;;3.46;77.45;99625.73;120673;1144;104502;-82
2021/01/26 06:34:56;;;;;;;12.30;5.80;;;;;;;3.51;77.60;99631.16;120714;1144;104373;-83
2021/01/26 06:37:54;;;;;;;13.33;6.30;;;;;;;3.51;77.12;99634.63;121907;1144;102618;-82
2021/01/26 06:40:40;;;;;;;16.73;7.27;;;;;;;3.53;76.98;99632.98;120739;1144;104479;-83
2021/01/26 06:43:18;;;;;;;13.47;6.10;;;;;;;3.60;77.01;99632.49;120685;1144;104439;-85
2021/01/26 06:45:59;;;;;;;13.63;5.97;;;;;;;3.71;77.29;99643.40;120727;1144;104429;-84
2021/01/26 06:48:57;;;;;;;15.03;6.53;;;;;;;3.84;77.60;99637.09;120738;1144;104552;-83
2021/01/26 06:51:40;;;;;;;11.20;5.90;;;;;;;3.98;76.91;99642.08;120991;1144;104436;-81
2021/01/26 06:54:23;;;;;;;13.33;6.30;;;;;;;4.05;77.36;99639.85;120800;1144;104741;-83
2021/01/26 06:57:22;;;;;;;11.90;6.30;;;;;;;4.13;77.04;99642.81;120970;1144;104490;-82
2021/01/26 07:00:17;;;;;;;13.43;6.57;;;;;;;4.19;76.58;99650.90;120713;1144;104724;-81
2021/01/26 07:03:12;;;;;;;11.93;6.08;;;;;;;4.25;76.77;99653.75;121231;1143;104429;-79
2021/01/26 07:05:59;;;;;;;12.45;6.35;;;;;;;4.28;76.93;99653.02;120762;1144;104393;-81
2021/01/26 07:08:52;;;;;;;12.17;5.43;;;;;;;4.31;76.78;99654.05;120895;1144;104419;-79
2021/01/26 07:11:43;;;;;;;10.03;5.00;;;;;;;4.37;76.85;99658.65;121707;1144;104495;-84
2021/01/26 07:14:30;;;;;;;11.17;5.47;;;;;;;4.44;76.38;99655.53;120916;1144;104524;-82
2021/01/26 07:17:04;;;;;;;12.40;5.90;;;;;;;4.52;76.49;99652.38;121006;1143;104377;-82
2021/01/26 07:20:00;;;;;;;13.15;6.45;;;;;;;4.54;76.65;99645.57;120998;1144;104455;-83
2021/01/26 07:22:54;;;;;;;18.50;8.40;;;;;;;4.55;76.24;99658.63;120921;1144;104377;-82
2021/01/26 07:25:37;;;;;;;11.60;6.10;;;;;;;4.55;76.28;99657.72;122292;1144;103626;-82
2021/01/26 07:28:26;;;;;;;13.93;6.27;;;;;;;4.53;75.99;99657.65;121100;1144;104486;-87
2021/01/26 07:31:00;;;;;;;14.70;7.43;;;;;;;4.52;76.04;99663.69;121063;1144;104435;-86
2021/01/26 07:33:36;;;;;;;12.73;6.35;;;;;;;4.48;76.45;99657.44;121236;1144;104401;-87
2021/01/26 07:36:12;;;;;;;11.30;5.60;;;;;;;4.39;76.60;99661.32;120932;1144;104468;-85
2021/01/26 07:38:48;;;;;;;13.70;6.27;;;;;;;4.31;76.54;99667.03;121068;1144;104469;-86
2021/01/26 07:41:27;;;;;;;11.50;5.37;;;;;;;4.26;75.58;99671.13;120887;1144;104537;-86
2021/01/26 07:44:10;;;;;;;12.23;6.10;;;;;;;4.24;76.60;99667.58;121166;1144;104439;-84
2021/01/26 07:46:50;;;;;;;12.10;6.20;;;;;;;4.24;76.54;99667.58;121095;1144;104359;-84
2021/01/26 07:49:29;;;;;;;20.83;10.13;;;;;;;4.25;76.59;99666.73;121032;1143;104383;-86
2021/01/26 07:52:03;;;;;;;15.47;6.63;;;;;;;4.23;76.43;99664.91;120864;1144;104355;-88
2021/01/26 07:54:49;;;;;;;13.70;6.57;;;;;;;4.24;76.21;99669.27;120895;1144;104473;-86
2021/01/26 07:57:20;;;;;;;16.00;7.23;;;;;;;4.23;75.96;99675.30;121138;1144;104336;-84
2021/01/26 07:59:54;;;;;;;16.30;7.27;;;;;;;4.28;76.29;99674.67;120736;1147;104934;-84
2021/01/26 08:02:39;;;;;;;18.17;8.48;;;;;;;4.35;76.01;99678.48;120791;1147;104364;-80
2021/01/26 08:05:14;;;;;;;14.50;6.80;;;;;;;4.42;76.45;99685.72;120421;1148;104495;-80
2021/01/26 08:07:47;;;;;;;13.50;6.47;;;;;;;4.46;76.45;99692.85;120441;1148;104521;-80
2021/01/26 08:10:22;;;;;;;13.43;6.67;;;;;;;4.48;75.66;99703.31;120316;1148;104438;-78
2021/01/26 08:12:53;;;;;;;15.67;7.23;;;;;;;4.48;75.74;99708.52;120363;1148;104405;-81
2021/01/26 08:15:30;;;;;;;17.75;8.10;;;;;;;4.48;75.75;99711.98;120358;1148;104492;-80
2021/01/26 08:18:17;;;;;;;14.37;6.87;;;;;;;4.48;75.52;99713.71;120399;1148;104547;-77
2021/01/26 08:20:49;;;;;;;13.73;7.00;;;;;;;4.45;75.32;99719.64;120704;1148;104555;-83
2021/01/26 08:23:29;;;;;;;17.67;7.57;;;;;;;4.44;76.07;99725.67;120706;1148;104405;-88
2021/01/26 08:26:18;;;;;;;17.17;7.43;;;;;;;4.43;76.03;99734.27;120586;1148;104772;-83
2021/01/26 08:28:49;;;;;;;14.90;7.10;;;;;;;4.38;75.73;99727.06;120463;1148;105026;-81
2021/01/26 08:31:32;;;;;;;14.17;6.53;;;;;;;4.35;75.74;99726.92;120571;1147;103869;-84
2021/01/26 08:34:25;;;;;;;15.00;6.80;;;;;;;4.36;76.26;99733.91;120676;1147;104654;-82
2021/01/26 08:37:24;;;;;;;14.90;6.63;;;;;;;4.44;76.07;99733.47;120844;1144;104428;-85
2021/01/26 08:39:55;;;;;;;13.27;6.40;;;;;;;4.54;76.14;99739.98;120907;1144;104335;-82
2021/01/26 08:42:50;;;;;;;14.70;7.70;;;;;;;4.65;75.88;99737.89;120758;1144;104375;-84
2021/01/26 08:45:54;;;;;;;15.25;7.10;;;;;;;4.74;75.88;99742.64;120781;1144;104374;-86
2021/01/26 08:48:27;;;;;;;20.60;8.43;;;;;;;4.74;75.69;99747.84;120862;1144;104454;-82
2021/01/26 08:51:12;;;;;;;20.23;9.17;;;;;;;4.77;75.37;99750.55;121000;1144;104388;-82
2021/01/26 08:53:42;;;;;;;21.53;9.33;;;;;;;4.80;75.18;99763.70;121177;1144;104468;-81
2021/01/26 08:56:34;;;;;;;18.67;9.77;;;;;;;4.82;75.89;99762.96;121149;1144;104385;-82
2021/01/26 08:59:07;;;;;;;22.70;9.90;;;;;;;4.85;75.56;99764.83;121319;1144;104350;-84
2021/01/26 09:01:45;;;;;;;17.10;7.70;;;;;;;4.85;75.25;99772.63;121154;1144;104506;-82
2021/01/26 09:04:40;;;;;;;16.80;8.70;;;;;;;4.84;75.83;99768.23;120779;1147;104404;-80
2021/01/26 09:07:11;;;;;;;16.03;8.07;;;;;;;4.84;74.89;99763.03;120710;1147;104381;-82
2021/01/26 09:09:54;;;;;;;18.53;8.20;;;;;;;4.80;75.30;99768.89;120782;1148;104532;-84
2021/01/26 09:12:26;;;;;;;16.50;7.83;;;;;;;4.80;75.54;99769.80;120778;1147;104364;-82
2021/01/26 09:15:01;;;;;;;6.83;3.53;;;;;;;4.79;75.43;99761.94;120765;1146;104399;-81
2021/01/26 09:17:35;;;;;;;9.10;4.07;;;;;;;4.72;74.66;99765.05;120832;1146;104364;-81
2021/01/26 09:20:14;;;;;;;7.22;3.98;;;;;;;4.65;75.07;99775.16;120843;1146;104543;-83
2021/01/26 09:22:44;;;;;;;8.87;4.70;;;;;;;4.54;75.06;99771.16;120984;1147;104498;-84
2021/01/26 09:25:16;;;;;;;10.20;5.13;;;;;;;4.55;75.36;99762.56;121429;1146;104492;-78
2021/01/26 09:27:58;;;;;;;11.40;6.20;;;;;;;4.62;75.84;99755.94;120906;1147;104639;-83
2021/01/26 09:30:29;;;;;;;11.87;5.77;;;;;;;4.64;75.95;99752.61;121236;1144;104940;-83
2021/01/26 09:33:18;;;;;;;12.47;6.33;;;;;;;4.64;75.47;99747.41;121201;1144;104489;-84
2021/01/26 09:35:49;;;;;;;12.60;6.50;;;;;;;4.67;75.35;99742.36;121119;1144;104477;-84
2021/01/26 09:38:24;;;;;;;15.97;7.17;;;;;;;4.75;75.61;99734.89;121161;1143;104643;-83
2021/01/26 09:40:59;;;;;;;15.60;7.90;;;;;;;4.83;75.30;99743.95;121097;1144;104365;-79
2021/01/26 09:43:31;;;;;;;20.27;9.80;;;;;;;4.87;75.95;99742.37;121210;1143;104333;-82
2021/01/26 09:46:04;;;;;;;22.23;10.53;;;;;;;4.92;75.16;99745.19;121128;1144;104825;-83
2021/01/26 09:48:38;;;;;;;20.93;10.53;;;;;;;4.93;75.48;99733.98;121154;1144;102990;-83
2021/01/26 09:51:12;;;;;;;21.53;10.73;;;;;;;4.98;75.78;99737.67;121214;1144;104348;-82
2021/01/26 09:53:45;;;;;;;20.83;10.37;;;;;;;5.02;75.22;99739.61;121016;1144;104455;-82
2021/01/26 09:56:19;;;;;;;21.10;10.53;;;;;;;5.01;75.34;99733.49;121182;1145;104349;-82
2021/01/26 09:58:51;;;;;;;21.60;10.77;;;;;;;4.97;75.30;99735.88;121407;1143;104423;-82
2021/01/26 10:01:23;;;;;;;21.13;10.73;;;;;;;4.95;75.11;99747.93;121081;1143;104433;-80
2021/01/26 10:03:59;;;;;;;19.67;9.90;;;;;;;4.93;75.37;99745.27;121088;1144;104497;-83
2021/01/26 10:06:29;;;;;;;20.57;10.17;;;;;;;4.91;75.87;99744.31;120854;1143;105097;-81
2021/01/26 10:09:16;;;;;;;20.90;10.20;;;;;;;4.95;75.72;99741.02;120857;1144;104428;-82
2021/01/26 10:11:45;;;;;;;21.77;10.37;;;;;;;5.04;75.68;99741.43;121162;1143;104409;-84
2021/01/26 10:14:18;;;;;;;19.13;9.37;;;;;;;5.13;75.22;99753.98;120994;1143;104477;-81
2021/01/26 10:16:49;;;;;;;22.40;10.30;;;;;;;5.20;75.73;99753.45;121051;1143;104359;-84
2021/01/26 10:19:27;;;;;;;19.60;10.07;;;;;;;5.24;75.79;99756.19;121280;1141;104487;-80
2021/01/26 10:22:13;;;;;;;19.20;9.50;;;;;;;5.24;75.84;99749.27;121202;1141;104340;-80
2021/01/26 10:24:44;;;;;;;18.98;9.55;;;;;;;5.25;75.53;99751.05;121043;1141;104518;-80
2021/01/26 10:27:20;;;;;;;20.50;9.53;;;;;;;5.27;75.40;99745.92;121031;1141;104438;-83
2021/01/26 10:30:08;;;;;;;20.07;9.73;;;;;;;5.22;75.23;99748.31;121028;1141;104366;-82
2021/01/26 10:32:46;;;;;;;20.13;9.50;;;;;;;5.19;75.38;99749.05;121011;1141;104391;-83
2021/01/26 10:35:28;;;;;;;19.07;9.37;;;;;;;5.20;75.40;99757.73;120935;1141;104348;-84
2021/01/26 10:37:58;;;;;;;22.67;9.90;;;;;;;5.22;75.13;99749.19;120837;1141;104465;-82
2021/01/26 10:40:36;;;;;;;19.50;8.73;;;;;;;5.25;75.35;99753.66;121006;1141;104438;-83
2021/01/26 10:43:12;;;;;;;18.60;9.10;;;;;;;5.33;75.47;99756.56;121053;1141;104458;-81
2021/01/26 10:45:46;;;;;;;20.33;9.10;;;;;;;5.38;75.45;99753.36;121022;1141;104597;-81
2021/01/26 10:48:24;;;;;;;19.27;8.85;;;;;;;5.42;75.47;99754.38;121174;1141;104430;-81
2021/01/26 10:51:11;;;;;;;17.10;8.90;;;;;;;5.47;75.45;99751.98;121419;1141;104351;-84
2021/01/26 10:53:43;;;;;;;17.53;9.27;;;;;;;5.51;75.28;99746.97;121290;1141;104372;-83
2021/01/26 10:56:14;;;;;;;17.77;9.50;;;;;;;5.56;75.48;99741.97;121236;1141;104380;-81
2021/01/26 10:58:48;;;;;;;21.23;10.27;;;;;;;5.62;75.55;99751.77;121311;1141;104806;-80
2021/01/26 11:01:21;;;;;;;24.20;9.40;;;;;;;5.64;75.28;99752.72;121104;1141;104400;-84
2021/01/26 11:03:52;;;;;;;17.20;8.97;;;;;;;5.68;75.22;99734.70;121244;1141;104464;-80
2021/01/26 11:06:23;;;;;;;18.47;8.93;;;;;;;5.73;74.96;99730.60;121029;1141;104394;-81
2021/01/26 11:08:54;;;;;;;18.83;8.53;;;;;;;5.76;75.02;99735.94;120744;1141;104448;-86
2021/01/26 11:11:28;;;;;;;17.93;8.83;;;;;;;5.82;75.12;99731.80;121076;1141;104463;-80
2021/01/26 11:14:00;;;;;;;25.75;13.53;;;;;;;5.85;75.17;99743.23;121049;1141;104482;-83
2021/01/26 11:16:33;;;;;;;19.50;9.53;;;;;;;5.87;74.64;99743.30;120758;1141;104461;-81
2021/01/26 11:19:04;;;;;;;20.07;9.90;;;;;;;5.82;74.44;99747.42;120894;1140;104391;-83
2021/01/26 11:21:36;;;;;;;21.77;11.80;;;;;;;5.75;74.31;99749.77;120922;1141;104377;-82
2021/01/26 11:24:10;;;;;;;21.90;10.63;;;;;;;5.74;74.28;99737.56;120970;1141;104460;-81
2021/01/26 11:26:39;;;;;;;23.87;12.43;;;;;;;5.79;74.66;99736.88;121058;1141;104420;-82
2021/01/26 11:29:08;;;;;;;22.07;11.43;;;;;;;5.85;74.48;99740.63;121138;1141;104339;-81
2021/01/26 11:31:41;;;;;;;22.40;11.83;;;;;;;5.91;74.59;99740.89;121227;1141;104363;-81
2021/01/26 11:34:11;;;;;;;23.47;11.23;;;;;;;5.90;74.37;99746.91;121307;1141;104490;-81
2021/01/26 11:36:40;;;;;;;22.87;11.50;;;;;;;5.85;74.21;99740.63;121031;1141;104857;-82
2021/01/26 11:39:09;;;;;;;23.33;10.80;;;;;;;5.86;74.11;99750.23;121314;1141;104335;-80
2021/01/26 11:41:42;;;;;;;23.10;11.90;;;;;;;5.82;74.11;99747.42;121229;1140;104455;-82
2021/01/26 11:44:11;;;;;;;20.53;10.37;;;;;;;5.76;73.90;99748.95;121177;1141;103203;-81
2021/01/26 11:46:40;;;;;;;22.13;11.30;;;;;;;5.63;74.05;99749.23;121220;1141;104509;-83
2021/01/26 11:49:10;;;;;;;26.03;12.30;;;;;;;5.52;74.06;99745.28;121123;1141;104368;-82
2021/01/26 11:51:39;;;;;;;23.97;12.93;;;;;;;5.46;74.12;99747.63;120888;1141;104471;-82
2021/01/26 11:54:09;;;;;;;23.30;11.13;;;;;;;5.44;74.30;99749.24;120864;1141;104410;-83
2021/01/26 11:56:39;;;;;;;21.67;10.60;;;;;;;5.38;74.03;99744.67;121171;1141;104477;-83
2021/01/26 11:59:21;;;;;;;19.20;10.33;;;;;;;5.32;73.81;99752.20;120930;1141;104509;-82
2021/01/26 12:01:53;;;;;;;28.50;13.70;;;;;;;5.24;74.23;99750.98;120933;1141;104430;-81
2021/01/26 12:04:23;;;;;;;22.90;11.97;;;;;;;5.22;73.90;99754.39;120922;1141;104484;-85